createdAt,value
2018-09-18T00:06:11.928Z,37.17
2018-09-18T00:08:40.425Z,33.75
2018-09-18T00:11:08.910Z,30.00
2018-09-18T00:13:37.541Z,29.65
2018-09-18T00:16:06.661Z,31.90
2018-09-18T00:18:36.122Z,28.90
2018-09-18T00:21:04.670Z,30.80
2018-09-18T00:23:34.962Z,28.67
2018-09-18T00:26:03.869Z,29.35
2018-09-18T00:28:32.450Z,33.03
2018-09-18T00:31:00.959Z,31.90
2018-09-18T00:33:29.505Z,27.43
2018-09-18T00:35:58.091Z,32.40
2018-09-18T00:38:26.545Z,37.97
2018-09-18T00:40:55.042Z,30.13
2018-09-18T00:43:23.597Z,27.70
2018-09-18T00:45:52.106Z,29.90
2018-09-18T00:48:20.964Z,27.70
2018-09-18T00:50:49.820Z,31.10
2018-09-18T00:53:18.312Z,26.90
2018-09-18T00:55:47.298Z,30.70
2018-09-18T00:58:17.393Z,27.98
2018-09-18T01:00:45.905Z,30.70
2018-09-18T01:08:12.955Z,32.20
2018-09-18T01:10:41.534Z,32.33
2018-09-18T01:13:10.077Z,37.23
2018-09-18T01:15:38.892Z,37.97
2018-09-18T01:18:07.455Z,37.10
2018-09-18T01:20:35.949Z,30.20
2018-09-18T01:23:04.467Z,42.78
2018-09-18T01:25:32.997Z,30.77
2018-09-18T01:28:01.530Z,38.20
2018-09-18T01:30:30.543Z,35.83
2018-09-18T01:32:59.061Z,35.70
2018-09-18T01:35:27.532Z,38.50
2018-09-18T01:37:56.038Z,29.67
2018-09-18T01:40:24.534Z,29.77
2018-09-18T01:42:53.002Z,33.30
2018-09-18T01:45:21.502Z,39.33
2018-09-18T01:47:49.973Z,40.13
2018-09-18T01:50:18.460Z,33.85
2018-09-18T01:52:47.569Z,37.07
2018-09-18T01:55:17.350Z,36.83
2018-09-18T01:57:45.840Z,33.80
2018-09-18T02:05:10.830Z,32.73
2018-09-18T02:07:39.312Z,31.50
2018-09-18T02:10:07.782Z,36.90
2018-09-18T02:12:36.781Z,30.90
2018-09-18T02:15:05.410Z,35.20
2018-09-18T02:17:33.921Z,31.75
2018-09-18T02:20:02.439Z,29.52
2018-09-18T02:22:30.912Z,27.87
2018-09-18T02:24:59.402Z,30.35
2018-09-18T02:27:27.941Z,32.37
2018-09-18T02:29:56.834Z,33.63
2018-09-18T02:32:25.350Z,37.03
2018-09-18T02:34:57.243Z,34.40
2018-09-18T02:37:27.020Z,32.13
2018-09-18T02:39:58.053Z,33.18
2018-09-18T02:42:28.535Z,42.53
2018-09-18T02:44:57.084Z,34.20
2018-09-18T02:47:26.046Z,33.67
2018-09-18T02:49:54.514Z,36.73
2018-09-18T02:52:22.986Z,39.70
2018-09-18T02:54:51.603Z,33.13
2018-09-18T02:57:20.081Z,39.03
2018-09-18T02:59:48.617Z,27.47
2018-09-18T03:07:23.041Z,35.57
2018-09-18T03:09:52.043Z,30.60
2018-09-18T03:12:20.861Z,36.23
2018-09-18T03:14:49.961Z,31.48
2018-09-18T03:17:18.462Z,27.70
2018-09-18T03:19:47.002Z,29.87
2018-09-18T03:27:10.525Z,33.30
2018-09-18T03:29:39.429Z,32.17
2018-09-18T03:32:07.931Z,33.83
2018-09-18T03:34:36.933Z,29.60
2018-09-18T03:37:05.442Z,34.43
2018-09-18T03:39:34.132Z,42.20
2018-09-18T03:42:02.894Z,43.27
2018-09-18T03:44:31.386Z,30.40
2018-09-18T03:46:59.880Z,28.27
2018-09-18T03:49:28.602Z,31.90
2018-09-18T03:51:58.050Z,28.07
2018-09-18T03:54:26.997Z,36.73
2018-09-18T03:56:56.177Z,32.15
2018-09-18T03:59:24.702Z,30.85
2018-09-18T04:01:53.214Z,37.77
2018-09-18T04:04:21.726Z,34.27
2018-09-18T04:06:52.214Z,38.70
2018-09-18T04:09:21.414Z,49.60
2018-09-18T04:11:50.306Z,32.80
2018-09-18T04:14:18.773Z,39.03
2018-09-18T04:16:48.066Z,33.20
2018-09-18T04:19:18.152Z,32.25
2018-09-18T04:21:47.161Z,30.87
2018-09-18T04:24:17.430Z,27.55
2018-09-18T04:26:45.975Z,32.93
2018-09-18T04:34:16.514Z,30.40
2018-09-18T04:36:45.521Z,41.33
2018-09-18T04:44:11.055Z,36.80
2018-09-18T04:46:39.526Z,42.67
2018-09-18T04:49:08.106Z,33.97
2018-09-18T04:51:36.681Z,30.93
2018-09-18T04:54:05.591Z,44.33
2018-09-18T04:56:34.355Z,36.42
2018-09-18T04:59:02.906Z,31.60
2018-09-18T05:01:31.409Z,33.78
2018-09-18T05:03:59.925Z,29.87
2018-09-18T05:06:28.461Z,35.48
2018-09-18T05:08:58.214Z,36.30
2018-09-18T05:11:27.558Z,37.07
2018-09-18T05:13:56.116Z,42.57
2018-09-18T05:16:24.573Z,39.53
2018-09-18T05:18:54.267Z,37.10
2018-09-18T05:21:22.774Z,52.47
2018-09-18T05:23:51.288Z,30.50
2018-09-18T05:26:19.745Z,28.73
2018-09-18T05:28:49.723Z,32.53
2018-09-18T05:31:18.210Z,37.90
2018-09-18T05:33:46.800Z,33.67
2018-09-18T05:41:10.977Z,29.77
2018-09-18T05:43:39.458Z,28.07
2018-09-18T05:46:07.946Z,30.23
2018-09-18T05:48:36.952Z,28.87
2018-09-18T05:51:05.455Z,27.58
2018-09-18T05:53:33.962Z,34.55
2018-09-18T05:56:02.504Z,33.48
2018-09-18T05:58:31.027Z,21.93
2018-09-18T06:00:59.521Z,25.60
2018-09-18T06:03:28.041Z,26.57
2018-09-18T06:05:56.506Z,35.10
2018-09-18T06:08:24.966Z,30.52
2018-09-18T06:10:53.961Z,23.57
2018-09-18T06:13:23.062Z,30.27
2018-09-18T06:15:51.570Z,22.47
2018-09-18T06:18:20.155Z,27.73
2018-09-18T06:20:48.622Z,27.53
2018-09-18T06:23:17.383Z,24.83
2018-09-18T06:25:45.874Z,32.43
2018-09-18T06:33:13.497Z,24.57
2018-09-18T06:35:41.986Z,25.33
2018-09-18T06:38:10.489Z,22.60
2018-09-18T06:40:38.996Z,22.67
2018-09-18T06:43:07.497Z,20.40
2018-09-18T06:45:35.979Z,19.87
2018-09-18T06:48:04.549Z,21.85
2018-09-18T06:50:33.002Z,19.63
2018-09-18T06:53:01.481Z,22.87
2018-09-18T06:55:31.127Z,18.50
2018-09-18T06:58:00.029Z,21.17
2018-09-18T07:00:28.517Z,17.35
2018-09-18T07:02:57.023Z,23.50
2018-09-18T07:05:25.496Z,16.10
2018-09-18T07:07:53.950Z,17.00
2018-09-18T07:10:22.486Z,15.03
2018-09-18T07:12:50.962Z,12.77
2018-09-18T07:15:20.497Z,14.33
2018-09-18T07:17:49.556Z,12.53
2018-09-18T07:20:18.063Z,16.83
2018-09-18T07:22:46.530Z,13.70
2018-09-18T07:30:15.362Z,12.33
2018-09-18T07:32:43.843Z,18.17
2018-09-18T07:35:12.350Z,10.03
2018-09-18T07:37:41.082Z,11.87
2018-09-18T07:40:09.597Z,10.60
2018-09-18T07:42:38.215Z,10.80
2018-09-18T07:45:06.785Z,15.93
2018-09-18T07:47:35.422Z,9.33
2018-09-18T07:50:03.953Z,9.43
2018-09-18T07:52:32.481Z,11.80
2018-09-18T07:55:00.954Z,15.13
2018-09-18T07:57:29.595Z,9.23
2018-09-18T07:59:58.709Z,8.90
2018-09-18T08:02:27.540Z,9.85
2018-09-18T08:04:56.030Z,10.20
2018-09-18T08:07:24.548Z,12.47
2018-09-18T08:09:52.748Z,12.70
2018-09-18T08:12:21.246Z,8.73
2018-09-18T08:14:49.750Z,16.97
2018-09-18T08:17:18.910Z,9.83
2018-09-18T08:19:47.645Z,15.13
2018-09-18T08:27:11.833Z,12.60
2018-09-18T08:29:40.559Z,8.77
2018-09-18T08:32:09.059Z,8.27
2018-09-18T08:34:37.622Z,9.13
2018-09-18T08:37:06.146Z,8.10
2018-09-18T08:39:34.625Z,9.50
2018-09-18T08:42:03.128Z,8.73
2018-09-18T08:44:31.613Z,7.83
2018-09-18T08:47:00.142Z,12.70
2018-09-18T08:49:29.234Z,8.70
2018-09-18T08:51:57.820Z,9.70
2018-09-18T08:54:26.275Z,9.47
2018-09-18T08:56:54.786Z,8.17
2018-09-18T08:59:23.278Z,9.03
2018-09-18T09:01:51.809Z,10.30
2018-09-18T09:04:20.353Z,9.90
2018-09-18T09:06:48.832Z,9.20
2018-09-18T09:09:17.393Z,9.10
2018-09-18T09:11:47.529Z,9.50
2018-09-18T09:19:13.014Z,13.70
2018-09-18T09:21:41.494Z,8.40
2018-09-18T09:24:10.003Z,8.40
2018-09-18T09:26:38.612Z,7.45
2018-09-18T09:29:07.037Z,9.40
2018-09-18T09:31:35.775Z,10.80
2018-09-18T09:34:04.681Z,8.97
2018-09-18T09:36:33.271Z,12.55
2018-09-18T09:39:01.765Z,7.23
2018-09-18T09:41:30.303Z,7.80
2018-09-18T09:43:59.125Z,7.60
2018-09-18T09:46:27.587Z,7.97
2018-09-18T09:48:56.394Z,13.10
2018-09-18T09:51:24.966Z,14.40
2018-09-18T09:53:53.392Z,9.47
2018-09-18T09:56:23.014Z,7.57
2018-09-18T09:58:51.494Z,7.10
2018-09-18T10:01:25.373Z,7.55
2018-09-18T10:03:54.030Z,7.30
2018-09-18T10:06:22.808Z,9.75
2018-09-18T10:08:51.312Z,8.13
2018-09-18T10:11:19.799Z,11.83
2018-09-18T10:13:48.305Z,8.33
2018-09-18T10:16:18.060Z,9.27
2018-09-18T10:18:47.546Z,9.90
2018-09-18T10:21:18.017Z,9.78
2018-09-18T10:23:46.562Z,9.33
2018-09-18T10:31:10.997Z,12.97
2018-09-18T10:33:39.524Z,15.83
2018-09-18T10:36:08.004Z,9.23
2018-09-18T10:38:37.047Z,11.43
2018-09-18T10:41:05.672Z,10.80
2018-09-18T10:43:34.076Z,11.20
2018-09-18T10:46:03.097Z,12.03
2018-09-18T10:48:35.219Z,11.20
2018-09-18T10:51:03.695Z,13.83
2018-09-18T10:53:32.202Z,13.23
2018-09-18T10:56:00.672Z,10.37
2018-09-18T10:58:29.142Z,9.77
2018-09-18T11:00:58.280Z,9.40
2018-09-18T11:03:26.796Z,15.50
2018-09-18T11:05:55.299Z,12.47
2018-09-18T11:08:23.909Z,9.67
2018-09-18T11:10:52.402Z,12.83
2018-09-18T11:13:20.937Z,9.35
2018-09-18T11:15:50.049Z,14.00
2018-09-18T11:18:18.594Z,10.15
2018-09-18T11:20:47.169Z,10.97
2018-09-18T11:23:18.426Z,14.78
2018-09-18T11:25:48.111Z,10.10
2018-09-18T11:28:17.421Z,16.95
2018-09-18T11:30:45.955Z,9.10
2018-09-18T11:38:10.118Z,10.20
2018-09-18T11:40:38.603Z,13.30
2018-09-18T11:43:07.473Z,13.17
2018-09-18T11:45:36.581Z,10.47
2018-09-18T11:48:05.023Z,10.47
2018-09-18T11:50:33.607Z,11.23
2018-09-18T11:53:02.946Z,10.03
2018-09-18T11:55:31.530Z,10.70
2018-09-18T11:58:00.010Z,9.80
2018-09-18T12:00:28.625Z,9.80
2018-09-18T12:02:58.056Z,14.90
2018-09-18T12:05:26.605Z,9.08
2018-09-18T12:07:56.007Z,10.50
2018-09-18T12:10:24.503Z,10.82
2018-09-18T12:12:55.208Z,10.97
2018-09-18T12:15:23.710Z,9.80
2018-09-18T12:17:52.229Z,10.17
2018-09-18T12:20:20.749Z,11.10
2018-09-18T12:22:49.347Z,10.37
2018-09-18T12:25:19.602Z,9.53
2018-09-18T12:27:48.811Z,9.50
2018-09-18T12:30:17.485Z,9.73
2018-09-18T12:32:46.716Z,10.07
2018-09-18T12:40:14.817Z,13.77
2018-09-18T12:42:43.579Z,15.63
2018-09-18T12:45:12.171Z,10.57
2018-09-18T12:47:41.202Z,12.30
2018-09-18T12:50:09.982Z,16.40
2018-09-18T12:52:38.928Z,10.80
2018-09-18T12:55:08.708Z,9.87
2018-09-18T12:57:38.121Z,12.03
2018-09-18T13:00:07.004Z,9.77
2018-09-18T13:02:35.493Z,9.10
2018-09-18T13:05:05.100Z,12.33
2018-09-18T13:07:34.196Z,12.18
2018-09-18T13:10:04.323Z,9.63
2018-09-18T13:12:33.583Z,8.53
2018-09-18T13:15:02.323Z,9.70
2018-09-18T13:17:30.904Z,8.67
2018-09-18T13:19:59.451Z,8.05
2018-09-18T13:22:27.946Z,9.55
2018-09-18T13:24:56.470Z,9.20
2018-09-18T13:27:25.759Z,9.00
2018-09-18T13:29:54.251Z,8.97
2018-09-18T13:32:23.121Z,8.70
2018-09-18T13:34:51.604Z,8.47
2018-09-18T13:37:21.364Z,9.00
2018-09-18T13:39:49.996Z,8.43
2018-09-18T13:42:18.485Z,8.90
2018-09-18T13:44:47.335Z,128.17
2018-09-18T13:47:17.457Z,7.60
2018-09-18T13:49:46.221Z,13.27
2018-09-18T13:52:14.707Z,8.10
2018-09-18T13:54:43.395Z,24.47
2018-09-18T13:57:11.886Z,7.47
2018-09-18T13:59:40.428Z,7.33
2018-09-18T14:02:09.010Z,8.07
2018-09-18T14:04:37.477Z,8.90
2018-09-18T14:07:05.929Z,7.83
2018-09-18T14:09:34.510Z,10.25
2018-09-18T14:12:02.962Z,7.80
2018-09-18T14:14:31.453Z,7.30
2018-09-18T14:17:00.294Z,10.10
2018-09-18T14:19:29.060Z,7.85
2018-09-18T14:21:57.538Z,7.83
2018-09-18T14:24:26.082Z,9.50
2018-09-18T14:26:54.582Z,8.07
2018-09-18T14:29:23.990Z,8.37
2018-09-18T14:31:52.505Z,15.53
2018-09-18T14:34:21.023Z,7.40
2018-09-18T14:36:49.631Z,8.93
2018-09-18T14:39:18.649Z,7.57
2018-09-18T14:41:47.121Z,7.50
2018-09-18T14:44:17.610Z,7.50
2018-09-18T14:46:46.123Z,7.87
2018-09-18T14:54:14.387Z,7.50
2018-09-18T14:56:42.919Z,7.83
2018-09-18T14:59:11.471Z,22.60
2018-09-18T15:01:40.837Z,78.13
2018-09-18T15:04:09.362Z,29.87
2018-09-18T15:06:37.848Z,10.73
2018-09-18T15:09:09.022Z,7.90
2018-09-18T15:11:37.505Z,8.37
2018-09-18T15:14:06.095Z,12.73
2018-09-18T15:16:34.702Z,13.78
2018-09-18T15:19:03.207Z,13.57
2018-09-18T15:21:31.732Z,10.00
2018-09-18T15:24:00.944Z,8.63
2018-09-18T15:26:29.473Z,8.13
2018-09-18T15:28:57.989Z,25.13
2018-09-18T15:31:26.986Z,51.95
2018-09-18T15:33:55.557Z,12.98
2018-09-18T15:36:24.078Z,10.53
2018-09-18T15:38:52.725Z,10.80
2018-09-18T15:41:21.218Z,11.30
2018-09-18T15:43:49.742Z,14.57
2018-09-18T15:46:18.362Z,83.47
2018-09-18T15:48:46.921Z,19.80
2018-09-18T15:56:16.170Z,9.10
2018-09-18T15:58:44.727Z,10.00
2018-09-18T16:01:13.272Z,14.53
2018-09-18T16:03:42.273Z,13.90
2018-09-18T16:06:10.834Z,18.00
2018-09-18T16:08:39.317Z,14.10
2018-09-18T16:11:08.511Z,10.40
2018-09-18T16:13:37.494Z,10.03
2018-09-18T16:16:06.037Z,19.00
2018-09-18T16:18:34.538Z,10.58
2018-09-18T16:21:03.062Z,10.57
2018-09-18T16:23:31.593Z,10.00
2018-09-18T16:26:00.154Z,10.43
2018-09-18T16:28:28.678Z,11.13
2018-09-18T16:30:58.845Z,10.33
2018-09-18T16:33:27.966Z,12.70
2018-09-18T16:35:56.497Z,15.85
2018-09-18T16:38:25.006Z,12.33
2018-09-18T16:40:53.517Z,20.80
2018-09-18T16:43:22.099Z,12.40
2018-09-18T16:45:50.700Z,14.20
2018-09-18T16:48:19.547Z,14.93
2018-09-18T16:50:48.034Z,16.90
2018-09-18T16:53:17.782Z,20.10
2018-09-18T16:55:46.669Z,14.80
2018-09-18T17:03:08.999Z,17.87
2018-09-18T17:05:37.508Z,12.68
2018-09-18T17:08:06.227Z,18.80
2018-09-18T17:10:34.877Z,11.00
2018-09-18T17:13:03.362Z,14.43
2018-09-18T17:15:31.852Z,12.30
2018-09-18T17:18:00.501Z,14.83
2018-09-18T17:20:29.006Z,16.20
2018-09-18T17:22:58.075Z,24.23
2018-09-18T17:25:26.678Z,20.77
2018-09-18T17:27:55.193Z,22.33
2018-09-18T17:30:23.723Z,25.60
2018-09-18T17:32:52.255Z,15.33
2018-09-18T17:35:21.269Z,15.63
2018-09-18T17:37:49.857Z,13.77
2018-09-18T17:40:18.432Z,19.93
2018-09-18T17:42:46.906Z,10.47
2018-09-18T17:50:10.142Z,9.63
2018-09-18T17:52:38.675Z,7.45
2018-09-18T17:55:07.489Z,12.43
2018-09-18T17:57:36.252Z,8.70
2018-09-18T18:00:05.374Z,9.03
2018-09-18T18:02:33.905Z,10.50
2018-09-18T18:05:02.426Z,6.62
2018-09-18T18:07:31.445Z,12.23
2018-09-18T18:10:00.296Z,12.23
2018-09-18T18:12:28.874Z,11.70
2018-09-18T18:14:57.385Z,8.57
2018-09-18T18:17:26.072Z,5.63
2018-09-18T18:19:55.307Z,8.10
2018-09-18T18:22:23.969Z,10.03
2018-09-18T18:24:53.517Z,6.50
2018-09-18T18:27:23.054Z,9.00
2018-09-18T18:29:51.559Z,20.17
2018-09-18T18:32:21.111Z,6.83
2018-09-18T18:34:50.470Z,6.67
2018-09-18T18:37:20.485Z,8.30
2018-09-18T18:39:49.020Z,5.90
2018-09-18T18:42:17.578Z,8.87
2018-09-18T18:44:46.191Z,5.50
2018-09-18T18:52:15.573Z,10.30
2018-09-18T18:54:44.437Z,7.00
2018-09-18T18:57:12.963Z,6.03
2018-09-18T18:59:41.606Z,21.15
2018-09-18T19:02:10.155Z,9.70
2018-09-18T19:04:39.442Z,5.80
2018-09-18T19:07:08.699Z,5.00
2018-09-18T19:09:37.313Z,5.03
2018-09-18T19:12:06.037Z,5.33
2018-09-18T19:14:35.022Z,5.25
2018-09-18T19:17:03.522Z,5.12
2018-09-18T19:19:32.030Z,4.57
2018-09-18T19:22:00.550Z,3.37
2018-09-18T19:24:29.066Z,5.83
2018-09-18T19:26:57.915Z,7.70
2018-09-18T19:29:26.601Z,3.50
2018-09-18T19:31:55.092Z,4.30
2018-09-18T19:34:23.614Z,4.57
2018-09-18T19:36:52.602Z,4.20
2018-09-18T19:39:21.835Z,3.33
2018-09-18T19:41:50.322Z,3.90
2018-09-18T19:44:18.894Z,3.67
2018-09-18T19:46:47.654Z,2.95
2018-09-18T19:49:17.418Z,2.37
2018-09-18T19:51:46.884Z,4.27
2018-09-18T19:59:14.054Z,4.40
2018-09-18T20:01:42.633Z,3.17
2018-09-18T20:04:11.239Z,4.30
2018-09-18T20:06:40.608Z,3.90
2018-09-18T20:09:10.659Z,7.90
2018-09-18T20:11:39.387Z,8.07
2018-09-18T20:14:09.398Z,4.10
2018-09-18T20:16:37.882Z,6.43
2018-09-18T20:19:07.763Z,3.35
2018-09-18T20:21:37.595Z,4.70
2018-09-18T20:24:06.382Z,4.13
2018-09-18T20:26:35.025Z,10.83
2018-09-18T20:29:03.784Z,3.77
2018-09-18T20:31:32.315Z,2.62
2018-09-18T20:34:01.184Z,5.47
2018-09-18T20:36:30.019Z,6.10
2018-09-18T20:38:58.547Z,4.45
2018-09-18T20:41:28.516Z,2.80
2018-09-18T20:43:57.110Z,4.40
2018-09-18T20:46:26.455Z,3.40
2018-09-18T20:48:55.162Z,3.87
2018-09-18T20:51:23.745Z,5.50
2018-09-18T20:53:52.331Z,4.50
2018-09-18T20:56:21.013Z,4.65
2018-09-18T20:58:49.928Z,2.20
2018-09-18T21:01:19.057Z,2.30
2018-09-18T21:03:47.961Z,4.40
2018-09-18T21:06:17.815Z,2.30
2018-09-18T21:08:46.335Z,3.90
2018-09-18T21:16:11.077Z,3.30
2018-09-18T21:18:39.572Z,4.10
2018-09-18T21:21:08.180Z,2.10
2018-09-18T21:23:37.271Z,4.87
2018-09-18T21:26:14.273Z,4.43
2018-09-18T21:28:42.782Z,2.33
2018-09-18T21:31:11.287Z,9.17
2018-09-18T21:33:39.810Z,2.57
2018-09-18T21:36:08.322Z,2.70
2018-09-18T21:38:37.000Z,2.40
2018-09-18T21:41:05.494Z,4.10
2018-09-18T21:43:34.873Z,8.70
2018-09-18T21:46:03.407Z,3.17
2018-09-18T21:48:31.883Z,2.90
2018-09-18T21:51:00.499Z,2.83
2018-09-18T21:53:28.987Z,4.17
2018-09-18T21:55:57.497Z,2.60
2018-09-18T21:58:26.066Z,2.40
2018-09-18T22:00:54.566Z,2.07
2018-09-18T22:03:23.070Z,8.40
2018-09-18T22:05:52.010Z,6.93
2018-09-18T22:08:20.487Z,2.65
2018-09-18T22:10:48.965Z,2.63
2018-09-18T22:13:17.494Z,2.35
2018-09-18T22:15:45.988Z,3.73
2018-09-18T22:23:14.334Z,6.03
2018-09-18T22:25:42.817Z,11.00
2018-09-18T22:28:11.284Z,5.43
2018-09-18T22:30:39.816Z,3.83
2018-09-18T22:33:08.323Z,2.80
2018-09-18T22:35:36.785Z,7.93
2018-09-18T22:38:05.640Z,3.10
2018-09-18T22:40:34.125Z,3.35
2018-09-18T22:43:02.671Z,4.70
2018-09-18T22:45:31.819Z,4.37
2018-09-18T22:48:00.434Z,3.33
2018-09-18T22:50:28.925Z,3.20
2018-09-18T22:52:57.459Z,3.70
2018-09-18T22:55:26.044Z,7.70
2018-09-18T22:57:54.547Z,3.30
2018-09-18T23:00:23.082Z,4.23
2018-09-18T23:02:51.586Z,3.77
2018-09-18T23:05:20.149Z,3.37
2018-09-18T23:07:49.195Z,3.40
2018-09-18T23:10:17.673Z,5.03
2018-09-18T23:12:46.158Z,4.00
2018-09-18T23:20:13.946Z,3.67
2018-09-18T23:22:42.493Z,8.05
2018-09-18T23:25:11.017Z,3.60
2018-09-18T23:27:39.575Z,19.40
2018-09-18T23:30:08.087Z,6.10
2018-09-18T23:32:36.553Z,3.80
2018-09-18T23:35:05.087Z,4.10
2018-09-18T23:37:33.559Z,4.60
2018-09-18T23:40:02.090Z,3.73
2018-09-18T23:42:30.621Z,4.70
2018-09-18T23:44:59.139Z,4.53
2018-09-18T23:47:28.359Z,4.03
2018-09-18T23:49:57.263Z,5.83
2018-09-18T23:52:25.829Z,4.28
2018-09-18T23:54:54.342Z,7.23
2018-09-18T23:57:23.104Z,4.73
2018-09-18T23:59:51.612Z,11.93
